createdAt,value
2023-02-06T00:00:53.324Z,73.80
2023-02-06T00:03:20.641Z,72.85
2023-02-06T00:05:58.758Z,73.38
2023-02-06T00:08:27.026Z,73.48
2023-02-06T00:10:54.228Z,73.13
2023-02-06T00:13:21.429Z,72.61
2023-02-06T00:15:48.517Z,73.13
2023-02-06T00:18:15.490Z,73.50
2023-02-06T00:20:42.538Z,72.86
2023-02-06T00:23:10.105Z,72.39
2023-02-06T00:25:37.350Z,72.84
2023-02-06T00:28:04.895Z,73.03
2023-02-06T00:30:32.034Z,73.01
2023-02-06T00:32:59.047Z,72.84
2023-02-06T00:35:26.230Z,73.32
2023-02-06T00:37:53.299Z,73.31
2023-02-06T00:40:20.367Z,72.95
2023-02-06T00:42:47.364Z,73.50
2023-02-06T00:45:14.406Z,73.68
2023-02-06T00:47:41.313Z,73.14
2023-02-06T00:50:12.015Z,73.71
2023-02-06T00:52:39.064Z,73.01
2023-02-06T00:55:06.542Z,72.56
2023-02-06T00:57:33.371Z,73.85
2023-02-06T01:00:06.282Z,73.89
2023-02-06T01:02:33.370Z,73.73
2023-02-06T01:05:00.404Z,73.92
2023-02-06T01:07:27.355Z,73.59
2023-02-06T01:09:54.278Z,73.52
2023-02-06T01:12:21.414Z,73.23
2023-02-06T01:14:48.366Z,73.75
2023-02-06T01:17:15.298Z,73.42
2023-02-06T01:19:42.268Z,73.10
2023-02-06T01:22:09.994Z,72.57
2023-02-06T01:24:36.897Z,73.28
2023-02-06T01:27:03.939Z,72.26
2023-02-06T01:29:30.844Z,72.68
2023-02-06T01:31:57.789Z,72.53
2023-02-06T01:34:24.989Z,72.57
2023-02-06T01:36:52.236Z,71.68
2023-02-06T01:39:21.576Z,71.78
2023-02-06T01:41:48.670Z,71.68
2023-02-06T01:44:22.766Z,70.66
2023-02-06T01:46:54.972Z,70.68
2023-02-06T01:49:35.663Z,70.93
2023-02-06T01:52:18.849Z,70.73
2023-02-06T01:54:49.581Z,70.02
2023-02-06T01:57:17.658Z,70.79
2023-02-06T01:59:48.028Z,70.77
2023-02-06T02:02:15.445Z,70.30
2023-02-06T02:04:42.925Z,69.66
2023-02-06T02:07:18.039Z,70.18
2023-02-06T02:09:44.974Z,69.91
2023-02-06T02:12:12.333Z,69.14
2023-02-06T02:14:40.225Z,69.14
2023-02-06T02:17:44.686Z,69.48
2023-02-06T02:20:32.634Z,69.50
2023-02-06T02:23:31.324Z,69.02
2023-02-06T02:26:22.126Z,69.87
2023-02-06T02:29:19.396Z,69.16
2023-02-06T02:32:18.816Z,68.48
2023-02-06T02:34:54.638Z,68.85
2023-02-06T02:37:36.969Z,68.70
2023-02-06T02:40:18.554Z,66.30
2023-02-06T02:42:56.447Z,65.57
2023-02-06T02:45:33.334Z,65.36
2023-02-06T02:48:06.344Z,65.09
2023-02-06T02:50:35.019Z,66.46
2023-02-06T02:53:03.719Z,66.53
2023-02-06T02:55:31.006Z,64.83
2023-02-06T02:58:07.997Z,64.77
2023-02-06T03:00:40.294Z,65.62
2023-02-06T03:03:11.124Z,65.20
2023-02-06T03:05:44.134Z,64.58
2023-02-06T03:08:17.173Z,64.63
2023-02-06T03:11:04.154Z,65.56
2023-02-06T03:14:01.570Z,64.69
2023-02-06T03:16:35.760Z,62.91
2023-02-06T03:19:15.276Z,63.80
2023-02-06T03:21:43.130Z,63.71
2023-02-06T03:24:27.658Z,63.63
2023-02-06T03:27:03.009Z,64.17
2023-02-06T03:29:32.190Z,65.51
2023-02-06T03:32:24.640Z,64.63
2023-02-06T03:34:58.233Z,66.08
2023-02-06T03:37:25.738Z,64.99
2023-02-06T03:39:52.687Z,63.67
2023-02-06T03:42:20.414Z,63.25
2023-02-06T03:44:51.697Z,63.59
2023-02-06T03:47:19.432Z,64.94
2023-02-06T03:49:47.491Z,63.40
2023-02-06T03:52:18.168Z,62.92
2023-02-06T03:54:51.928Z,62.69
2023-02-06T04:28:56.490Z,65.29
2023-02-06T04:31:44.101Z,63.95
2023-02-06T04:34:11.057Z,63.60
2023-02-06T04:36:40.525Z,63.24
2023-02-06T04:39:07.383Z,63.51
2023-02-06T04:41:34.160Z,63.36
2023-02-06T04:44:01.273Z,63.74
2023-02-06T04:46:28.080Z,62.04
2023-02-06T04:48:54.804Z,63.05
2023-02-06T04:51:21.585Z,61.03
2023-02-06T04:53:48.318Z,62.17
2023-02-06T04:56:15.144Z,61.60
2023-02-06T04:58:41.950Z,62.25
2023-02-06T05:01:08.760Z,61.63
2023-02-06T05:03:35.574Z,60.50
2023-02-06T05:06:03.749Z,62.34
2023-02-06T05:08:30.575Z,61.29
2023-02-06T05:10:57.423Z,59.75
2023-02-06T05:13:24.238Z,60.96
2023-02-06T05:15:51.087Z,61.61
2023-02-06T05:18:18.308Z,63.10
2023-02-06T05:20:45.132Z,63.49
2023-02-06T05:23:12.265Z,64.14
2023-02-06T05:25:40.352Z,64.54
2023-02-06T05:28:08.854Z,64.90
2023-02-06T05:30:36.428Z,64.19
2023-02-06T05:33:03.169Z,65.46
2023-02-06T05:35:30.388Z,63.95
2023-02-06T05:38:05.948Z,65.00
2023-02-06T05:40:32.906Z,64.80
2023-02-06T05:42:59.603Z,65.62
2023-02-06T05:45:26.339Z,65.88
2023-02-06T05:47:54.488Z,66.14
2023-02-06T05:50:21.449Z,66.13
2023-02-06T05:52:48.201Z,66.10
2023-02-06T05:55:17.031Z,65.68
2023-02-06T05:57:44.309Z,64.52
2023-02-06T06:00:12.093Z,64.23
2023-02-06T06:02:39.004Z,64.53
2023-02-06T06:05:06.129Z,64.76
2023-02-06T06:07:32.927Z,65.46
2023-02-06T06:10:00.231Z,64.53
2023-02-06T06:12:27.270Z,64.36
2023-02-06T06:14:54.030Z,64.09
2023-02-06T06:17:21.318Z,63.85
2023-02-06T06:19:48.083Z,64.38
2023-02-06T06:22:14.925Z,64.18
2023-02-06T06:24:41.729Z,63.44
2023-02-06T06:27:10.750Z,63.40
2023-02-06T06:29:37.840Z,63.68
2023-02-06T06:32:05.289Z,62.67
2023-02-06T06:34:32.198Z,63.06
2023-02-06T06:36:59.088Z,62.70
2023-02-06T06:39:25.809Z,61.72
2023-02-06T06:41:52.541Z,60.80
2023-02-06T06:44:19.245Z,60.14
2023-02-06T06:46:46.147Z,59.62
2023-02-06T06:49:12.886Z,58.72
2023-02-06T06:51:39.670Z,58.15
2023-02-06T06:54:06.572Z,59.17
2023-02-06T06:56:33.276Z,58.56
2023-02-06T06:59:00.021Z,57.60
2023-02-06T07:01:27.006Z,57.00
2023-02-06T07:03:53.730Z,56.33
2023-02-06T07:06:20.488Z,57.33
2023-02-06T07:08:47.294Z,56.59
2023-02-06T07:11:15.233Z,55.62
2023-02-06T07:13:42.720Z,54.91
2023-02-06T07:16:10.035Z,53.99
2023-02-06T07:18:38.559Z,54.07
2023-02-06T07:21:06.512Z,55.45
2023-02-06T07:23:33.217Z,53.34
2023-02-06T07:26:02.346Z,53.72
2023-02-06T07:28:30.503Z,53.09
2023-02-06T07:31:02.027Z,54.38
2023-02-06T07:33:28.971Z,53.37
2023-02-06T07:35:55.930Z,53.86
2023-02-06T07:38:22.736Z,52.73
2023-02-06T07:40:49.489Z,52.00
2023-02-06T07:43:16.567Z,50.65
2023-02-06T07:45:43.760Z,51.26
2023-02-06T07:48:10.610Z,51.24
2023-02-06T07:50:37.610Z,52.54
2023-02-06T07:53:04.355Z,52.94
2023-02-06T07:55:31.146Z,53.48
2023-02-06T07:57:57.995Z,50.55
2023-02-06T08:00:24.746Z,50.90
2023-02-06T08:02:51.548Z,50.66
2023-02-06T08:05:18.525Z,48.80
2023-02-06T08:07:45.323Z,49.88
2023-02-06T08:10:12.170Z,50.93
2023-02-06T08:12:38.902Z,49.74
2023-02-06T08:15:05.964Z,50.34
2023-02-06T08:17:32.688Z,50.77
2023-02-06T08:19:59.485Z,48.36
2023-02-06T08:22:28.888Z,46.69
2023-02-06T08:24:55.602Z,46.71
2023-02-06T08:27:22.318Z,46.72
2023-02-06T08:29:49.198Z,46.13
2023-02-06T08:32:15.918Z,46.10
2023-02-06T08:34:42.732Z,45.70
2023-02-06T08:37:09.678Z,43.67
2023-02-06T08:39:38.132Z,45.47
2023-02-06T08:42:05.411Z,46.78
2023-02-06T08:44:34.832Z,46.55
2023-02-06T08:47:10.189Z,46.14
2023-02-06T08:49:38.283Z,47.35
2023-02-06T08:52:05.895Z,47.71
2023-02-06T08:54:35.208Z,47.16
2023-02-06T08:57:03.268Z,45.63
2023-02-06T08:59:31.077Z,47.14
2023-02-06T09:01:58.006Z,48.76
2023-02-06T09:04:24.883Z,47.66
2023-02-06T09:06:52.248Z,48.37
2023-02-06T09:09:20.458Z,47.28
2023-02-06T09:11:47.612Z,47.86
2023-02-06T09:14:16.010Z,48.24
2023-02-06T09:16:42.960Z,47.85
2023-02-06T09:19:10.720Z,47.33
2023-02-06T09:21:37.820Z,47.27
2023-02-06T09:24:08.255Z,48.21
2023-02-06T09:26:44.788Z,47.65
2023-02-06T09:29:20.556Z,48.46
2023-02-06T09:31:47.881Z,46.88
2023-02-06T09:34:14.792Z,48.56
2023-02-06T09:36:41.744Z,48.63
2023-02-06T09:39:09.636Z,50.28
2023-02-06T09:41:43.791Z,46.41
2023-02-06T09:44:10.585Z,47.86
2023-02-06T09:46:43.299Z,44.79
2023-02-06T09:49:18.803Z,43.74
2023-02-06T09:52:19.984Z,43.34
2023-02-06T09:55:14.537Z,44.87
2023-02-06T09:57:46.724Z,46.60
2023-02-06T10:00:38.129Z,45.14
2023-02-06T10:03:19.758Z,45.68
2023-02-06T10:05:59.903Z,43.36
2023-02-06T10:08:36.458Z,44.99
2023-02-06T10:11:29.364Z,43.50
2023-02-06T10:13:59.691Z,43.81
2023-02-06T10:16:33.125Z,45.31
2023-02-06T10:19:04.682Z,44.80
2023-02-06T10:21:41.892Z,44.37
2023-02-06T10:24:27.325Z,44.35
2023-02-06T10:26:55.604Z,46.50
2023-02-06T10:29:33.073Z,44.62
2023-02-06T10:32:02.779Z,43.53
2023-02-06T10:35:02.091Z,44.32
2023-02-06T10:37:49.090Z,45.94
2023-02-06T10:40:43.820Z,44.13
2023-02-06T10:43:40.432Z,44.60
2023-02-06T10:46:37.307Z,41.60
2023-02-06T10:49:27.892Z,41.63
2023-02-06T10:51:58.465Z,40.51
2023-02-06T10:54:31.345Z,38.54
2023-02-06T10:56:59.143Z,37.91
2023-02-06T10:59:34.804Z,39.95
2023-02-06T11:02:12.063Z,41.15
2023-02-06T11:04:42.572Z,41.10
2023-02-06T11:07:16.259Z,41.77
2023-02-06T11:09:43.790Z,41.41
2023-02-06T11:12:30.938Z,42.50
2023-02-06T11:15:01.929Z,44.60
2023-02-06T11:17:28.738Z,45.55
2023-02-06T11:20:02.594Z,43.94
2023-02-06T11:22:34.757Z,43.79
2023-02-06T11:25:10.041Z,46.07
2023-02-06T11:27:37.037Z,44.01
2023-02-06T11:30:09.175Z,43.00
2023-02-06T11:32:41.220Z,44.53
2023-02-06T11:35:22.386Z,44.25
2023-02-06T11:37:54.198Z,43.55
2023-02-06T11:40:20.858Z,44.48
2023-02-06T11:42:49.891Z,45.17
2023-02-06T11:45:22.749Z,46.77
2023-02-06T11:47:49.823Z,45.95
2023-02-06T11:50:26.734Z,47.19
2023-02-06T11:53:09.273Z,47.20
2023-02-06T11:55:37.918Z,45.65
2023-02-06T11:58:13.838Z,46.25
2023-02-06T12:00:41.365Z,44.38
2023-02-06T12:03:33.343Z,46.97
2023-02-06T12:06:05.684Z,45.38
2023-02-06T12:08:41.154Z,45.19
2023-02-06T12:11:14.491Z,47.17
2023-02-06T12:13:45.550Z,46.24
2023-02-06T12:16:15.133Z,46.51
2023-02-06T12:18:44.460Z,48.67
2023-02-06T12:21:17.238Z,46.19
2023-02-06T12:23:49.746Z,47.14
2023-02-06T12:26:19.599Z,45.29
2023-02-06T12:28:59.581Z,47.77
2023-02-06T12:31:38.181Z,48.10
2023-02-06T12:34:15.177Z,47.05
2023-02-06T12:37:00.430Z,46.21
2023-02-06T12:39:32.755Z,46.50
2023-02-06T12:42:18.574Z,45.77
2023-02-06T12:45:04.268Z,45.33
2023-02-06T12:47:33.886Z,46.93
2023-02-06T12:50:06.791Z,44.94
2023-02-06T12:53:11.514Z,44.16
2023-02-06T12:55:48.019Z,45.21
2023-02-06T12:58:26.402Z,46.49
2023-02-06T13:01:03.629Z,45.33
2023-02-06T13:03:34.481Z,45.94
2023-02-06T13:06:18.695Z,47.39
2023-02-06T13:08:59.663Z,47.57
2023-02-06T13:11:35.717Z,48.06
2023-02-06T13:14:17.514Z,48.23
2023-02-06T13:16:53.016Z,48.93
2023-02-06T13:19:49.153Z,50.01
2023-02-06T13:22:39.817Z,48.43
2023-02-06T13:25:28.618Z,46.71
2023-02-06T13:28:27.542Z,48.45
2023-02-06T13:31:22.488Z,48.96
2023-02-06T13:33:56.539Z,46.94
2023-02-06T13:36:50.344Z,49.22
2023-02-06T13:39:32.518Z,49.35
2023-02-06T13:42:03.863Z,74.92
2023-02-06T13:44:36.826Z,57.22
2023-02-06T13:47:23.791Z,50.10
2023-02-06T13:50:08.922Z,41.01
2023-02-06T13:52:54.410Z,37.24
2023-02-06T13:55:43.086Z,38.65
2023-02-06T13:58:19.334Z,40.56
2023-02-06T14:00:47.986Z,40.75
2023-02-06T14:03:26.328Z,42.60
2023-02-06T14:06:01.926Z,44.03
2023-02-06T14:08:40.626Z,44.24
2023-02-06T14:11:07.495Z,43.33
2023-02-06T14:14:02.259Z,44.72
2023-02-06T14:16:50.278Z,46.21
2023-02-06T14:19:24.931Z,46.93
2023-02-06T14:22:10.179Z,46.79
2023-02-06T14:24:49.010Z,47.00
2023-02-06T14:27:45.259Z,46.25
2023-02-06T14:30:14.898Z,48.58
2023-02-06T14:32:56.503Z,48.55
2023-02-06T14:35:43.166Z,48.95
2023-02-06T14:38:29.870Z,48.94
2023-02-06T14:40:57.648Z,49.19
2023-02-06T14:43:28.398Z,49.66
2023-02-06T14:46:07.141Z,50.23
2023-02-06T14:48:45.574Z,50.35
2023-02-06T14:51:37.235Z,51.19
2023-02-06T14:54:06.587Z,52.49
2023-02-06T14:56:36.714Z,51.23
2023-02-06T14:59:23.805Z,50.96
2023-02-06T15:01:52.658Z,50.90
2023-02-06T15:04:26.322Z,51.25
2023-02-06T15:06:58.769Z,51.66
2023-02-06T15:09:32.521Z,52.35
2023-02-06T15:12:15.588Z,51.71
2023-02-06T15:14:54.916Z,52.24
2023-02-06T15:17:23.702Z,52.46
2023-02-06T15:19:50.610Z,52.35
2023-02-06T15:22:30.957Z,52.15
2023-02-06T15:25:27.420Z,53.43
2023-02-06T15:28:04.295Z,53.09
2023-02-06T15:30:32.553Z,52.84
2023-02-06T15:32:59.728Z,52.37
2023-02-06T15:35:32.314Z,53.79
2023-02-06T15:38:11.817Z,54.21
2023-02-06T15:40:42.293Z,52.73
2023-02-06T15:43:13.761Z,55.17
2023-02-06T15:45:41.088Z,54.35
2023-02-06T15:48:16.271Z,54.14
2023-02-06T15:51:20.477Z,56.54
2023-02-06T15:53:48.713Z,55.60
2023-02-06T15:56:27.860Z,56.40
2023-02-06T15:59:00.555Z,55.87
2023-02-06T16:01:31.039Z,55.77
2023-02-06T16:04:03.164Z,57.37
2023-02-06T16:06:29.968Z,55.45
2023-02-06T16:08:59.402Z,55.38
2023-02-06T16:11:51.617Z,55.98
2023-02-06T16:14:36.952Z,57.30
2023-02-06T16:17:32.755Z,55.54
2023-02-06T16:20:02.673Z,56.28
2023-02-06T16:22:35.148Z,56.18
2023-02-06T16:25:20.881Z,56.61
2023-02-06T16:27:48.709Z,56.41
2023-02-06T16:30:31.526Z,56.38
2023-02-06T16:33:00.302Z,55.85
2023-02-06T16:35:27.203Z,55.71
2023-02-06T16:37:54.616Z,56.25
2023-02-06T16:40:21.468Z,55.95
2023-02-06T16:42:48.233Z,55.13
2023-02-06T16:45:24.364Z,55.93
2023-02-06T16:47:51.110Z,55.45
2023-02-06T16:50:18.152Z,54.45
2023-02-06T16:52:51.383Z,55.57
2023-02-06T16:55:23.701Z,56.17
2023-02-06T16:57:53.169Z,55.74
2023-02-06T17:00:21.894Z,54.62
2023-02-06T17:02:49.745Z,55.79
2023-02-06T17:05:16.744Z,55.87
2023-02-06T17:07:43.747Z,54.98
2023-02-06T17:10:12.975Z,55.72
2023-02-06T17:12:39.989Z,55.40
2023-02-06T17:15:07.299Z,55.28
2023-02-06T17:17:34.114Z,55.04
2023-02-06T17:20:00.837Z,54.55
2023-02-06T17:22:27.588Z,54.28
2023-02-06T17:24:54.336Z,55.00
2023-02-06T17:27:22.245Z,55.88
2023-02-06T17:29:50.455Z,54.88
2023-02-06T17:32:22.042Z,53.65
2023-02-06T17:34:50.639Z,53.24
2023-02-06T17:37:20.876Z,54.33
2023-02-06T17:39:49.521Z,54.98
2023-02-06T17:42:16.976Z,55.89
2023-02-06T17:44:44.587Z,55.57
2023-02-06T17:47:11.644Z,55.91
2023-02-06T17:49:38.789Z,56.07
2023-02-06T17:52:05.622Z,54.42
2023-02-06T17:54:32.381Z,53.91
2023-02-06T17:56:59.322Z,53.70
2023-02-06T17:59:26.103Z,56.06
2023-02-06T18:01:52.836Z,53.62
2023-02-06T18:04:21.335Z,54.66
2023-02-06T18:06:48.300Z,53.69
2023-02-06T18:09:15.221Z,53.65
2023-02-06T18:11:42.279Z,55.51
2023-02-06T18:14:09.077Z,55.66
2023-02-06T18:16:36.342Z,55.32
2023-02-06T18:19:03.565Z,54.51
2023-02-06T18:21:31.565Z,53.79
2023-02-06T18:23:58.703Z,53.25
2023-02-06T18:26:26.005Z,54.39
2023-02-06T18:28:53.051Z,54.26
2023-02-06T18:31:28.625Z,54.30
2023-02-06T18:33:56.298Z,55.32
2023-02-06T18:36:23.540Z,54.55
2023-02-06T18:38:50.362Z,54.11
2023-02-06T18:41:35.555Z,54.31
2023-02-06T18:44:04.446Z,55.17
2023-02-06T18:46:31.287Z,55.05
2023-02-06T18:48:58.412Z,54.61
2023-02-06T18:51:25.714Z,53.50
2023-02-06T18:53:52.591Z,54.79
2023-02-06T18:56:19.519Z,54.74
2023-02-06T18:58:46.607Z,54.54
2023-02-06T19:01:22.377Z,54.82
2023-02-06T19:03:49.885Z,55.28
2023-02-06T19:06:18.173Z,57.13
2023-02-06T19:08:46.676Z,57.31
2023-02-06T19:11:13.682Z,56.36
2023-02-06T19:13:40.870Z,55.99
2023-02-06T19:16:12.168Z,57.02
2023-02-06T19:18:42.095Z,56.67
2023-02-06T19:21:12.211Z,54.35
2023-02-06T19:23:39.858Z,55.54
2023-02-06T19:26:07.964Z,54.95
2023-02-06T19:28:36.725Z,55.50
2023-02-06T19:31:04.009Z,55.77
2023-02-06T19:33:33.128Z,55.53
2023-02-06T19:36:00.169Z,54.84
2023-02-06T19:38:26.951Z,57.60
2023-02-06T19:40:53.837Z,56.71
2023-02-06T19:43:20.673Z,54.80
2023-02-06T19:45:47.555Z,56.42
2023-02-06T19:48:14.417Z,58.06
2023-02-06T19:50:42.080Z,58.87
2023-02-06T19:53:09.507Z,58.43
2023-02-06T19:55:36.808Z,57.76
2023-02-06T19:58:03.734Z,57.55
2023-02-06T20:00:30.477Z,58.55
2023-02-06T20:02:57.216Z,60.10
2023-02-06T20:05:26.350Z,60.03
2023-02-06T20:07:54.060Z,59.80
2023-02-06T20:10:22.063Z,57.96
2023-02-06T20:12:48.985Z,57.60
2023-02-06T20:15:15.807Z,57.11
2023-02-06T20:17:43.096Z,58.25
2023-02-06T20:20:10.585Z,57.66
2023-02-06T20:22:38.507Z,57.15
2023-02-06T20:25:05.817Z,56.25
2023-02-06T20:27:32.596Z,58.03
2023-02-06T20:29:59.380Z,59.29
2023-02-06T20:32:26.341Z,59.55
2023-02-06T20:34:53.132Z,57.87
2023-02-06T20:37:21.489Z,57.82
2023-02-06T20:39:49.242Z,58.75
2023-02-06T20:42:16.002Z,59.23
2023-02-06T20:44:42.879Z,59.85
2023-02-06T20:47:09.598Z,60.15
2023-02-06T20:49:36.398Z,60.28
2023-02-06T20:52:03.442Z,59.06
2023-02-06T20:54:30.949Z,59.87
2023-02-06T20:56:59.286Z,61.43
2023-02-06T20:59:26.846Z,61.04
2023-02-06T21:01:53.667Z,60.80
2023-02-06T21:04:20.800Z,59.68
2023-02-06T21:06:50.398Z,61.01
2023-02-06T21:09:18.370Z,60.86
2023-02-06T21:11:48.064Z,60.31
2023-02-06T21:14:15.275Z,59.40
2023-02-06T21:16:43.772Z,56.87
2023-02-06T21:19:12.619Z,57.89
2023-02-06T21:21:39.736Z,59.05
2023-02-06T21:24:07.434Z,59.65
2023-02-06T21:26:34.257Z,60.52
2023-02-06T21:29:02.598Z,60.97
2023-02-06T21:31:36.940Z,60.32
2023-02-06T21:34:11.800Z,60.18
2023-02-06T21:36:39.362Z,61.24
2023-02-06T21:39:06.989Z,61.21
2023-02-06T21:41:33.837Z,60.42
2023-02-06T21:44:00.632Z,59.40
2023-02-06T21:46:30.412Z,59.26
2023-02-06T21:48:57.123Z,60.09
2023-02-06T21:51:23.858Z,59.25
2023-02-06T21:53:50.818Z,59.34
2023-02-06T21:56:20.667Z,58.73
2023-02-06T21:58:48.483Z,58.68
2023-02-06T22:01:29.499Z,60.30
2023-02-06T22:03:57.311Z,58.39
2023-02-06T22:06:24.292Z,58.16
2023-02-06T22:08:52.443Z,57.88
2023-02-06T22:11:26.259Z,57.45
2023-02-06T22:13:57.125Z,57.83
2023-02-06T22:16:24.254Z,57.46
2023-02-06T22:18:51.272Z,58.14
2023-02-06T22:21:20.506Z,58.67
2023-02-06T22:23:48.515Z,58.69
2023-02-06T22:26:17.752Z,58.55
2023-02-06T22:28:45.254Z,59.57
2023-02-06T22:31:20.637Z,58.11
2023-02-06T22:33:47.942Z,58.92
2023-02-06T22:36:20.113Z,59.42
2023-02-06T22:38:47.906Z,60.24
2023-02-06T22:41:16.307Z,60.03
2023-02-06T22:43:44.272Z,60.25
2023-02-06T22:46:22.499Z,60.54
2023-02-06T22:48:49.459Z,60.01
2023-02-06T22:51:16.234Z,59.88
2023-02-06T22:53:43.556Z,61.08
2023-02-06T22:56:36.788Z,62.23
2023-02-06T22:59:10.432Z,62.17
2023-02-06T23:01:54.965Z,62.78
2023-02-06T23:04:24.520Z,60.83
2023-02-06T23:06:51.555Z,59.88
2023-02-06T23:09:26.800Z,59.05
2023-02-06T23:11:54.348Z,58.35
2023-02-06T23:14:21.289Z,58.90
2023-02-06T23:16:48.570Z,60.31
2023-02-06T23:19:16.982Z,61.02
2023-02-06T23:21:46.155Z,61.20
2023-02-06T23:24:13.423Z,61.44
2023-02-06T23:26:45.393Z,60.59
2023-02-06T23:29:17.304Z,60.49
2023-02-06T23:31:45.637Z,59.50
2023-02-06T23:34:13.083Z,59.86
2023-02-06T23:36:40.089Z,60.52
2023-02-06T23:39:07.064Z,60.62
2023-02-06T23:41:34.433Z,60.33
2023-02-06T23:44:06.172Z,61.01
2023-02-06T23:46:34.611Z,61.10
2023-02-06T23:49:01.408Z,61.02
